In Rescue
 
Open Full Screen Window  High Contrast Mode
April 03, 2020 1:24 AM EDT
Weather Information
Wind Direction
  ---
Wind Speed
  00 kt (0 mph)
Wind Gust
  00 kt (0 mph)
Altimeter
30.08 in
Visibility
10 SM
Temperature
01° C
34° F
Dewpoint
00° C
32° F
Humidity
93%
1hr Rain Fall
00.00 in.
24hr Rain Fall
00.00 in.
Sky Condition
Clear
VFR

METAR KD95 030524Z AUTO 00000KT 10SM CLR 01/00 A3008 RMK AO2 T00081001

FAA Disclaimer: The data displayed is for advisory purposes only and is not to be used for flight planning or operations.